Time;durP1;ratioP1;P1;durP2;ratioP2;P2;SDS_P1;SDS_P2;PMS_P1;PMS_P2;Temp;Humidity;BMP_temperature;BMP_pressure;BME280_temperature;BME280_humidity;BME280_pressure;Samples;Min_cycle;Max_cycle;Signal;HPM_P1;HPM_P2
2022/09/05 00:01:18;;;;;;;44.23;42.03;;;14.80;99.90;;;;;;5071365;28;20178;-76
2022/09/05 00:03:56;;;;;;;32.43;30.73;;;14.60;99.90;;;;;;5071497;28;20189;-76
2022/09/05 00:06:28;;;;;;;43.40;40.87;;;14.70;99.90;;;;;;5062125;28;20237;-76
2022/09/05 00:09:01;;;;;;;33.97;32.30;;;14.80;99.90;;;;;;5051029;28;20595;-76
2022/09/05 00:11:38;;;;;;;33.47;31.60;;;14.80;99.90;;;;;;5051303;28;20175;-77
2022/09/05 00:14:22;;;;;;;28.27;26.87;;;14.70;99.90;;;;;;5050409;28;20643;-76
2022/09/05 00:17:18;;;;;;;36.07;34.20;;;14.80;99.90;;;;;;5051084;28;20190;-76
2022/09/05 00:19:52;;;;;;;38.30;36.30;;;14.80;99.90;;;;;;5054687;28;20182;-76
2022/09/05 00:22:35;;;;;;;22.77;21.47;;;14.80;99.90;;;;;;5069704;28;20173;-76
2022/09/05 00:25:19;;;;;;;19.47;18.47;;;14.70;99.90;;;;;;5069639;28;20205;-76
2022/09/05 00:27:50;;;;;;;26.37;24.97;;;14.60;99.90;;;;;;5069104;28;20262;-76
2022/09/05 00:30:18;;;;;;;18.20;17.30;;;14.50;99.90;;;;;;5073795;28;20236;-76
2022/09/05 00:33:03;;;;;;;14.20;13.47;;;14.40;99.90;;;;;;5074790;28;20546;-76
2022/09/05 00:35:48;;;;;;;13.43;12.67;;;14.50;99.90;;;;;;5068462;28;20224;-76
2022/09/05 00:38:17;;;;;;;12.10;11.50;;;14.50;99.90;;;;;;5073962;28;20185;-76
2022/09/05 00:40:55;;;;;;;16.67;15.67;;;14.50;99.90;;;;;;5074769;28;20177;-76
2022/09/05 00:43:47;;;;;;;16.17;15.17;;;14.50;99.90;;;;;;5074716;28;20193;-76
2022/09/05 00:46:15;;;;;;;15.23;14.43;;;14.40;99.90;;;;;;5070863;28;20209;-76
2022/09/05 00:49:11;;;;;;;11.73;10.83;;;14.40;99.90;;;;;;5071807;28;20178;-76
2022/09/05 00:52:01;;;;;;;14.03;13.10;;;14.40;99.90;;;;;;5074535;28;20277;-76
2022/09/05 00:54:49;;;;;;;13.87;12.90;;;14.40;99.90;;;;;;5073370;28;20202;-76
2022/09/05 00:57:34;;;;;;;13.53;12.60;;;14.50;99.90;;;;;;5072595;28;20184;-76
2022/09/05 01:00:21;;;;;;;19.13;17.93;;;14.50;99.90;;;;;;5069644;28;20201;-75
2022/09/05 01:03:14;;;;;;;12.07;11.43;;;14.60;99.90;;;;;;5063761;28;20189;-76
2022/09/05 01:06:16;;;;;;;17.63;16.60;;;14.50;99.90;;;;;;5072639;28;20202;-76
2022/09/05 01:09:11;;;;;;;16.30;15.30;;;14.50;99.90;;;;;;5073306;28;20326;-75
2022/09/05 01:12:03;;;;;;;15.73;14.43;;;14.40;99.90;;;;;;5074142;28;20673;-75
2022/09/05 01:14:38;;;;;;;18.80;17.57;;;14.30;99.90;;;;;;5053458;28;20209;-74
2022/09/05 01:17:17;;;;;;;26.67;25.33;;;14.30;99.90;;;;;;5053383;28;20185;-75
2022/09/05 01:20:15;;;;;;;22.63;21.50;;;14.30;99.90;;;;;;5054301;28;20206;-75
2022/09/05 01:22:43;;;;;;;27.60;26.17;;;14.30;99.90;;;;;;5054096;28;20178;-75
2022/09/05 01:25:29;;;;;;;34.07;32.13;;;14.30;99.90;;;;;;5052730;28;20194;-77
2022/09/05 01:28:16;;;;;;;25.87;24.50;;;14.20;99.90;;;;;;5068445;28;20216;-75
2022/09/05 01:31:00;;;;;;;32.40;30.60;;;14.20;99.90;;;;;;5072902;28;20551;-75
2022/09/05 01:33:47;;;;;;;24.63;23.37;;;14.10;99.90;;;;;;5073303;28;20180;-75
2022/09/05 01:36:37;;;;;;;17.80;16.80;;;14.00;99.90;;;;;;5073110;28;20261;-75
2022/09/05 01:39:30;;;;;;;17.30;16.30;;;14.10;99.90;;;;;;5071556;28;20178;-75
2022/09/05 01:42:11;;;;;;;31.33;29.67;;;14.00;99.90;;;;;;5070776;28;20215;-77
2022/09/05 01:44:46;;;;;;;38.27;36.30;;;14.00;99.90;;;;;;5072475;28;20204;-75
2022/09/05 01:47:23;;;;;;;24.53;23.20;;;13.90;99.90;;;;;;5072917;28;20678;-75
2022/09/05 01:49:58;;;;;;;18.43;17.40;;;13.90;99.90;;;;;;5072388;28;20178;-75
2022/09/05 01:52:45;;;;;;;33.63;31.97;;;13.80;99.90;;;;;;5072216;28;20287;-75
2022/09/05 01:55:19;;;;;;;17.30;16.43;;;13.80;99.90;;;;;;5068381;28;20285;-75
2022/09/05 01:58:09;;;;;;;19.70;18.63;;;13.80;99.90;;;;;;5071474;28;20319;-75
2022/09/05 02:01:05;;;;;;;21.57;20.33;;;13.80;99.90;;;;;;5072214;28;20232;-75
2022/09/05 02:03:50;;;;;;;15.07;14.27;;;13.80;99.90;;;;;;5073292;28;20208;-75
2022/09/05 02:06:38;;;;;;;17.43;16.53;;;13.80;99.90;;;;;;5073258;28;20312;-75
2022/09/05 02:09:09;;;;;;;19.93;18.83;;;13.80;99.90;;;;;;5067621;28;20278;-75
2022/09/05 02:11:41;;;;;;;18.03;17.07;;;13.80;99.90;;;;;;5071830;28;20174;-76
2022/09/05 02:14:37;;;;;;;11.77;11.17;;;13.70;99.90;;;;;;5073125;28;20186;-75
2022/09/05 02:17:14;;;;;;;17.73;16.37;;;13.70;99.90;;;;;;5072328;28;20189;-75
2022/09/05 02:19:59;;;;;;;28.70;27.30;;;13.60;99.90;;;;;;5064592;28;20253;-75
2022/09/05 02:22:32;;;;;;;27.67;26.27;;;13.60;99.90;;;;;;5053000;28;20186;-75
2022/09/05 02:25:14;;;;;;;21.30;20.23;;;13.60;99.90;;;;;;5051726;28;20360;-75
2022/09/05 02:27:49;;;;;;;23.23;21.77;;;13.70;99.90;;;;;;5052011;28;20177;-75
2022/09/05 02:30:19;;;;;;;23.90;22.43;;;13.60;99.90;;;;;;5065345;28;20599;-75
2022/09/05 02:33:09;;;;;;;19.53;18.53;;;13.60;99.90;;;;;;5055996;28;20689;-75
2022/09/05 02:35:53;;;;;;;20.97;19.87;;;13.60;99.90;;;;;;5052753;28;20218;-76
2022/09/05 02:38:30;;;;;;;34.50;32.77;;;13.50;99.90;;;;;;5051578;28;20336;-76
2022/09/05 02:41:19;;;;;;;24.27;22.73;;;13.40;99.90;;;;;;5051390;28;20205;-76
2022/09/05 02:43:56;;;;;;;25.50;24.20;;;13.30;99.90;;;;;;5070841;28;20186;-75
2022/09/05 02:46:28;;;;;;;20.10;18.97;;;13.30;99.90;;;;;;5072224;28;20205;-74
2022/09/05 02:49:00;;;;;;;12.00;11.23;;;13.30;99.90;;;;;;5070607;28;20190;-75
2022/09/05 02:51:55;;;;;;;14.07;13.37;;;13.40;99.90;;;;;;5058649;28;20207;-75
2022/09/05 02:54:26;;;;;;;14.63;13.93;;;13.30;99.90;;;;;;5072192;28;20293;-75
2022/09/05 02:57:21;;;;;;;12.57;11.90;;;13.30;99.90;;;;;;5071224;28;20263;-75
2022/09/05 03:00:10;;;;;;;13.17;12.37;;;13.30;99.90;;;;;;5062626;28;20178;-75
2022/09/05 03:02:48;;;;;;;9.40;8.80;;;13.30;99.90;;;;;;5052707;28;20209;-75
2022/09/05 03:05:40;;;;;;;8.90;8.13;;;13.30;99.90;;;;;;5053439;28;20198;-75
2022/09/05 03:08:24;;;;;;;11.27;10.57;;;13.30;99.90;;;;;;5054243;28;20206;-74
2022/09/05 03:11:30;;;;;;;8.97;8.47;;;13.40;99.90;;;;;;5050664;28;20179;-75
2022/09/05 03:14:28;;;;;;;9.67;9.17;;;13.40;99.90;;;;;;5050597;28;20226;-77
2022/09/05 03:17:24;;;;;;;10.43;9.80;;;13.40;99.90;;;;;;5066373;28;20221;-74
2022/09/05 03:20:01;;;;;;;9.37;8.87;;;13.30;99.90;;;;;;5056607;28;20268;-73
2022/09/05 03:22:56;;;;;;;9.70;9.20;;;13.30;99.90;;;;;;5053806;28;20271;-73
2022/09/05 03:26:08;;;;;;;9.13;8.43;;;13.30;99.90;;;;;;5051669;28;20206;-73
2022/09/05 03:29:12;;;;;;;9.17;8.57;;;13.30;99.90;;;;;;5064567;28;20193;-73
2022/09/05 03:32:33;;;;;;;8.60;8.13;;;13.30;99.90;;;;;;5049777;28;20185;-73
2022/09/05 03:35:31;;;;;;;8.97;8.47;;;13.30;99.90;;;;;;5028640;28;20209;-73
2022/09/05 03:38:06;;;;;;;9.10;8.40;;;13.20;99.90;;;;;;5048025;28;20210;-73
2022/09/05 03:41:02;;;;;;;9.57;8.93;;;13.20;99.90;;;;;;5050129;28;20261;-72
2022/09/05 03:44:01;;;;;;;9.07;8.57;;;13.20;99.90;;;;;;5058280;28;20194;-72
2022/09/05 03:46:41;;;;;;;9.37;8.90;;;13.30;99.90;;;;;;5049730;28;20563;-73
2022/09/05 03:49:32;;;;;;;8.73;8.23;;;13.20;99.90;;;;;;5052548;28;20174;-73
2022/09/05 03:52:11;;;;;;;9.07;8.40;;;13.20;99.90;;;;;;5068288;28;20216;-72
2022/09/05 03:54:46;;;;;;;9.37;8.87;;;13.10;99.90;;;;;;5070831;28;20208;-73
2022/09/05 03:57:48;;;;;;;8.53;7.77;;;13.10;99.90;;;;;;5068839;28;20245;-73
2022/09/05 04:00:32;;;;;;;15.03;14.13;;;13.00;99.90;;;;;;5047952;28;20182;-73
2022/09/05 04:03:24;;;;;;;19.90;18.57;;;13.00;99.90;;;;;;5050303;28;20681;-73
2022/09/05 04:06:03;;;;;;;9.80;9.23;;;13.00;99.90;;;;;;5048142;28;20201;-74
2022/09/05 04:09:11;;;;;;;9.33;8.63;;;13.00;99.90;;;;;;5050163;28;20240;-74
2022/09/05 04:11:46;;;;;;;18.53;17.43;;;12.90;99.90;;;;;;5052323;28;20185;-74
2022/09/05 04:14:29;;;;;;;24.47;23.17;;;12.90;99.90;;;;;;5049715;28;20634;-74
2022/09/05 04:17:09;;;;;;;23.13;21.83;;;12.90;99.90;;;;;;5049595;28;20214;-74
2022/09/05 04:19:51;;;;;;;33.87;31.97;;;12.80;99.90;;;;;;5061452;28;20166;-73
2022/09/05 04:22:35;;;;;;;38.80;36.83;;;12.90;99.90;;;;;;5069176;28;20183;-74
2022/09/05 04:25:22;;;;;;;29.93;28.27;;;12.80;99.90;;;;;;5072481;28;20220;-73
2022/09/05 04:28:17;;;;;;;38.40;36.03;;;12.80;99.90;;;;;;5088475;28;20189;-74
2022/09/05 04:31:02;;;;;;;48.43;45.97;;;12.80;99.90;;;;;;5055382;28;20199;-73
2022/09/05 04:33:31;;;;;;;42.87;40.50;;;12.90;99.90;;;;;;5049944;28;20251;-73
2022/09/05 04:36:13;;;;;;;18.27;17.10;;;12.80;99.90;;;;;;5048445;28;20642;-73
2022/09/05 04:38:43;;;;;;;19.83;18.73;;;12.80;99.90;;;;;;5051936;28;20650;-73
2022/09/05 04:41:15;;;;;;;26.43;24.97;;;12.80;99.90;;;;;;5071603;28;20186;-74
2022/09/05 04:44:04;;;;;;;37.17;35.27;;;12.80;99.90;;;;;;5068826;28;20273;-74
2022/09/05 04:46:39;;;;;;;35.10;33.20;;;12.80;99.90;;;;;;5068412;28;20563;-73
2022/09/05 04:49:20;;;;;;;27.87;26.27;;;12.80;99.90;;;;;;5061035;28;20273;-73
2022/09/05 04:52:19;;;;;;;33.17;31.47;;;12.90;99.90;;;;;;5049616;28;20732;-74
2022/09/05 04:54:54;;;;;;;21.40;19.17;;;13.00;99.90;;;;;;5047822;28;20707;-73
2022/09/05 04:57:54;;;;;;;46.63;43.90;;;13.10;99.90;;;;;;5054341;28;20280;-73
2022/09/05 05:00:41;;;;;;;37.93;36.03;;;13.10;99.90;;;;;;5064629;28;20207;-73
2022/09/05 05:03:15;;;;;;;45.53;42.73;;;13.00;99.90;;;;;;5049457;28;20215;-73
2022/09/05 05:05:47;;;;;;;49.00;46.17;;;13.10;99.90;;;;;;5048446;28;20203;-73
2022/09/05 05:08:21;;;;;;;11.97;11.07;;;13.20;99.90;;;;;;5054720;28;20185;-73
2022/09/05 05:11:16;;;;;;;10.57;9.90;;;13.20;99.90;;;;;;5068938;28;20192;-73
2022/09/05 05:14:23;;;;;;;12.93;12.03;;;13.30;99.90;;;;;;5069653;28;20234;-73
2022/09/05 05:17:12;;;;;;;9.70;9.00;;;13.60;99.90;;;;;;5071349;28;20225;-73
2022/09/05 05:19:44;;;;;;;7.57;7.07;;;13.80;99.90;;;;;;5081236;28;20305;-74
2022/09/05 05:22:16;;;;;;;10.37;9.30;;;14.00;99.90;;;;;;5057713;28;20313;-72
2022/09/05 05:24:54;;;;;;;9.30;8.80;;;14.20;99.90;;;;;;5052939;28;20202;-75
2022/09/05 05:27:31;;;;;;;27.53;25.90;;;14.50;99.90;;;;;;5051990;28;20232;-74
2022/09/05 05:30:06;;;;;;;92.60;87.73;;;14.70;99.90;;;;;;5064069;28;20585;-73
2022/09/05 05:32:45;;;;;;;15.33;14.23;;;14.90;99.90;;;;;;5073281;28;20177;-74
2022/09/05 05:35:13;;;;;;;12.57;11.80;;;15.20;99.90;;;;;;5063376;28;20274;-73
2022/09/05 05:37:50;;;;;;;12.70;11.77;;;15.40;99.90;;;;;;5052023;28;20214;-73
2022/09/05 05:40:16;;;;;;;12.40;11.60;;;15.60;99.90;;;;;;5065954;28;20650;-73
2022/09/05 05:42:44;;;;;;;19.83;18.53;;;15.60;99.90;;;;;;5071757;28;20264;-75
2022/09/05 05:45:23;;;;;;;21.80;20.03;;;15.50;99.90;;;;;;5071269;28;20227;-73
2022/09/05 05:48:03;;;;;;;19.47;18.37;;;15.50;99.90;;;;;;5071628;28;20234;-73
2022/09/05 05:50:51;;;;;;;18.20;17.13;;;15.60;99.90;;;;;;5055394;28;20216;-73
2022/09/05 05:53:29;;;;;;;14.77;13.93;;;15.90;99.90;;;;;;5051377;28;20193;-73
2022/09/05 05:56:24;;;;;;;11.60;8.73;;;16.20;99.90;;;;;;5063426;28;20197;-73
2022/09/05 05:59:08;;;;;;;23.97;22.67;;;16.50;99.90;;;;;;5051524;28;20202;-74
2022/09/05 06:01:43;;;;;;;36.10;34.23;;;16.90;99.90;;;;;;5051519;28;20182;-73
2022/09/05 06:04:33;;;;;;;41.47;39.40;;;17.40;99.90;;;;;;5051429;28;20577;-74
2022/09/05 06:07:16;;;;;;;30.83;28.97;;;17.60;99.90;;;;;;5057435;28;20192;-74
2022/09/05 06:10:23;;;;;;;15.10;14.20;;;17.90;99.90;;;;;;5071211;28;20195;-74
2022/09/05 06:13:28;;;;;;;6.77;6.37;;;18.10;99.90;;;;;;5071539;28;20224;-74
2022/09/05 06:16:00;;;;;;;11.23;10.53;;;18.40;99.90;;;;;;5053450;28;20618;-74
2022/09/05 06:18:50;;;;;;;15.17;14.37;;;18.70;99.90;;;;;;5051218;28;20218;-73
2022/09/05 06:21:47;;;;;;;10.53;10.03;;;18.90;99.90;;;;;;5054132;28;20213;-75
2022/09/05 06:24:39;;;;;;;26.43;24.97;;;19.30;99.90;;;;;;5052097;28;20270;-74
2022/09/05 06:27:20;;;;;;;135.73;129.30;;;20.00;99.90;;;;;;5075770;28;20692;-73
2022/09/05 06:29:56;;;;;;;254.65;242.27;;;20.50;99.90;;;;;;5070396;28;20177;-74
2022/09/05 06:32:32;;;;;;;320.15;304.30;;;20.50;99.90;;;;;;5071604;28;20304;-73
2022/09/05 06:35:14;;;;;;;247.63;235.50;;;20.40;99.90;;;;;;5071302;28;20193;-73
2022/09/05 06:37:56;;;;;;;190.43;181.02;;;20.50;99.90;;;;;;5064368;28;20194;-75
2022/09/05 06:40:32;;;;;;;69.35;65.80;;;20.50;99.90;;;;;;5071969;28;20251;-74
2022/09/05 06:43:21;;;;;;;75.25;71.47;;;20.40;99.90;;;;;;5070509;28;20193;-75
2022/09/05 06:46:01;;;;;;;43.35;41.03;;;20.60;99.90;;;;;;5071819;28;20198;-74
2022/09/05 06:48:55;;;;;;;33.05;31.40;;;20.80;99.90;;;;;;5069753;28;20272;-74
2022/09/05 06:52:00;;;;;;;34.85;33.03;;;21.10;99.90;;;;;;5051867;28;20182;-74
2022/09/05 06:54:50;;;;;;;19.20;18.20;;;21.30;99.90;;;;;;5052193;28;20214;-75
2022/09/05 06:57:56;;;;;;;7.78;7.28;;;21.70;99.90;;;;;;5053366;28;20209;-74
2022/09/05 07:00:51;;;;;;;6.53;6.10;;;22.20;99.90;;;;;;5050619;28;20205;-74
2022/09/05 07:03:40;;;;;;;9.63;8.90;;;22.40;99.90;;;;;;5063907;28;20272;-74
2022/09/05 07:06:08;;;;;;;21.60;20.17;;;22.70;99.90;;;;;;5062956;28;20279;-75
2022/09/05 07:08:52;;;;;;;60.00;57.05;;;23.30;99.90;;;;;;5053520;28;20194;-75
2022/09/05 07:11:55;;;;;;;21.35;20.02;;;23.90;99.90;;;;;;5051491;28;20182;-76
2022/09/05 07:14:26;;;;;;;5.70;5.22;;;24.40;99.90;;;;;;5050808;28;20225;-73
2022/09/05 07:17:01;;;;;;;5.00;4.57;;;24.30;99.90;;;;;;5051465;28;20198;-73
2022/09/05 07:19:38;;;;;;;4.97;4.70;;;24.30;99.90;;;;;;5050144;28;20300;-73
2022/09/05 07:22:31;;;;;;;6.90;6.50;;;24.70;99.90;;;;;;5051363;28;20244;-73
2022/09/05 07:25:02;;;;;;;8.98;8.38;;;24.90;99.90;;;;;;5050318;28;20202;-73
2022/09/05 07:27:53;;;;;;;8.90;8.50;;;25.00;99.90;;;;;;5060638;28;20198;-73
2022/09/05 07:30:19;;;;;;;9.43;8.82;;;25.30;99.90;;;;;;5071530;28;20190;-72
2022/09/05 07:32:50;;;;;;;6.38;5.97;;;25.30;99.90;;;;;;5069668;28;20660;-72
2022/09/05 07:35:22;;;;;;;5.65;5.20;;;25.30;99.90;;;;;;5070062;28;20254;-72
2022/09/05 07:37:56;;;;;;;5.78;5.38;;;25.10;99.90;;;;;;5055324;28;20304;-73
2022/09/05 07:40:23;;;;;;;6.82;6.28;;;24.90;99.90;;;;;;5050733;28;20178;-73
2022/09/05 07:43:09;;;;;;;7.40;6.90;;;24.80;99.90;;;;;;5062784;28;20559;-73
2022/09/05 07:45:41;;;;;;;7.50;6.93;;;25.00;99.90;;;;;;5088706;28;20197;-73
2022/09/05 07:48:14;;;;;;;6.00;5.60;;;25.10;99.90;;;;;;5071205;28;20186;-73
2022/09/05 07:50:52;;;;;;;5.75;5.35;;;25.50;99.90;;;;;;5070813;28;20600;-73
2022/09/05 07:53:19;;;;;;;5.82;5.18;;;25.80;99.90;;;;;;5069629;28;20250;-73
2022/09/05 07:55:52;;;;;;;7.13;6.57;;;26.30;99.90;;;;;;5070713;28;20205;-73
2022/09/05 07:58:22;;;;;;;5.13;4.65;;;26.90;99.90;;;;;;5051800;28;20596;-73
2022/09/05 08:00:55;;;;;;;5.57;5.07;;;27.20;99.90;;;;;;5049460;28;20189;-73
2022/09/05 08:03:27;;;;;;;6.10;5.63;;;26.90;99.90;;;;;;5048403;28;20220;-74
2022/09/05 08:05:59;;;;;;;4.80;4.45;;;26.50;99.90;;;;;;5049146;28;20281;-74
2022/09/05 08:08:37;;;;;;;4.47;4.28;;;26.40;99.90;;;;;;5055791;28;20193;-74
2022/09/05 08:11:10;;;;;;;4.22;4.03;;;26.90;99.90;;;;;;5051205;28;20190;-74
2022/09/05 08:13:39;;;;;;;5.25;4.85;;;27.50;99.90;;;;;;5055650;28;20235;-73
2022/09/05 08:16:10;;;;;;;8.32;7.72;;;27.70;99.90;;;;;;5069148;28;20278;-73
2022/09/05 08:18:46;;;;;;;9.63;8.98;;;27.90;99.90;;;;;;5050051;28;20206;-73
2022/09/05 08:21:22;;;;;;;17.65;16.75;;;27.90;99.90;;;;;;5048969;28;20268;-73
2022/09/05 08:23:51;;;;;;;17.73;16.63;;;28.20;99.90;;;;;;5048303;28;20242;-74
2022/09/05 08:26:35;;;;;;;23.42;22.27;;;28.30;99.90;;;;;;5050366;28;20252;-73
2022/09/05 08:29:32;;;;;;;27.40;26.00;;;28.40;99.60;;;;;;5067789;28;20568;-73
2022/09/05 08:32:11;;;;;;;38.75;36.70;;;28.60;99.90;;;;;;5069063;28;20575;-74
2022/09/05 08:34:42;;;;;;;33.92;32.28;;;29.00;98.30;;;;;;5068638;28;20221;-74
2022/09/05 08:37:11;;;;;;;37.90;36.03;;;28.90;97.60;;;;;;5061089;28;20691;-74
2022/09/05 08:39:39;;;;;;;27.42;26.10;;;28.70;98.30;;;;;;5050202;28;20761;-76
2022/09/05 08:42:14;;;;;;;29.67;28.27;;;28.80;99.40;;;;;;5048853;28;20183;-77
2022/09/05 08:44:59;;;;;;;26.67;25.27;;;28.90;98.20;;;;;;5049103;28;20198;-76
2022/09/05 08:48:05;;;;;;;15.20;14.45;;;28.40;99.00;;;;;;5056753;28;20212;-75
2022/09/05 08:50:50;;;;;;;14.82;14.13;;;28.60;98.90;;;;;;5051285;28;20220;-74
2022/09/05 08:53:34;;;;;;;10.48;9.43;;;28.60;97.70;;;;;;5052382;28;20185;-74
2022/09/05 08:56:09;;;;;;;18.33;16.92;;;29.00;99.70;;;;;;5053634;28;20202;-75
2022/09/05 08:58:50;;;;;;;22.85;21.63;;;29.40;98.30;;;;;;5070022;28;20212;-74
2022/09/05 09:01:33;;;;;;;14.98;14.23;;;29.50;97.10;;;;;;5071921;28;20580;-75
2022/09/05 09:04:12;;;;;;;17.83;16.85;;;29.70;98.60;;;;;;5073680;28;20185;-75
2022/09/05 09:06:53;;;;;;;25.33;24.05;;;30.10;97.30;;;;;;5070884;28;20279;-76
2022/09/05 09:09:57;;;;;;;28.70;27.38;;;30.20;95.90;;;;;;5053243;28;20254;-77
2022/09/05 09:12:42;;;;;;;41.10;39.15;;;30.40;95.00;;;;;;5052096;28;20612;-77
2022/09/05 09:15:33;;;;;;;35.22;33.45;;;30.60;93.90;;;;;;5053274;28;20679;-77
2022/09/05 09:18:15;;;;;;;54.72;52.05;;;30.60;95.70;;;;;;5061137;28;20697;-77
2022/09/05 09:20:48;;;;;;;49.90;47.22;;;30.90;95.60;;;;;;5071032;28;20193;-79
2022/09/05 09:23:42;;;;;;;30.80;29.10;;;31.10;93.30;;;;;;5075185;28;20265;-78
2022/09/05 09:26:37;;;;;;;78.28;74.43;;;31.40;92.20;;;;;;5075133;28;20197;-78
2022/09/05 09:29:14;;;;;;;14.88;14.02;;;31.20;94.40;;;;;;5073253;28;20178;-79
2022/09/05 09:31:58;;;;;;;8.80;8.40;;;31.50;90.70;;;;;;5054776;28;20178;-78
2022/09/05 09:34:24;;;;;;;15.25;14.38;;;31.00;89.70;;;;;;5055879;28;20222;-79
2022/09/05 09:37:18;;;;;;;17.23;16.42;;;31.10;90.90;;;;;;5053023;28;20295;-77
2022/09/05 09:40:16;;;;;;;7.63;7.07;;;31.20;91.10;;;;;;5054489;28;20622;-77
2022/09/05 09:42:56;;;;;;;6.72;6.32;;;31.70;86.60;;;;;;5051626;28;20603;-77
2022/09/05 09:45:52;;;;;;;6.50;6.20;;;31.40;81.50;;;;;;5053090;28;20208;-77
2022/09/05 09:48:27;;;;;;;7.22;6.93;;;31.40;81.70;;;;;;5053128;28;20715;-78
2022/09/05 09:51:25;;;;;;;8.63;8.23;;;31.70;79.20;;;;;;5070707;28;20180;-78
2022/09/05 09:54:10;;;;;;;7.53;7.22;;;31.90;76.80;;;;;;5073057;28;20181;-78
2022/09/05 09:56:40;;;;;;;7.35;7.05;;;31.90;77.10;;;;;;5067533;28;20196;-79
2022/09/05 09:59:28;;;;;;;8.38;7.78;;;31.70;76.20;;;;;;5058278;28;20185;-77
2022/09/05 10:02:14;;;;;;;12.82;12.13;;;31.60;76.80;;;;;;5068732;28;20219;-77
2022/09/05 10:05:12;;;;;;;16.08;15.07;;;32.20;74.00;;;;;;5070375;28;20629;-77
2022/09/05 10:08:05;;;;;;;31.98;30.30;;;32.60;72.70;;;;;;5083801;23;20310;-81
2022/09/05 10:10:37;;;;;;;14.20;13.50;;;33.10;71.90;;;;;;5032092;28;20209;-78
2022/09/05 10:13:34;;;;;;;15.55;14.80;;;33.20;70.00;;;;;;5031123;28;20185;-78
2022/09/05 10:16:18;;;;;;;18.40;17.50;;;34.00;69.10;;;;;;5033992;28;20258;-79
2022/09/05 10:19:20;;;;;;;11.32;10.75;;;33.60;68.40;;;;;;5032887;28;20206;-81
2022/09/05 10:22:19;;;;;;;21.48;20.45;;;33.80;70.70;;;;;;5012713;28;20186;-79
2022/09/05 10:25:04;;;;;;;139.13;132.55;;;34.30;67.40;;;;;;5013546;28;20191;-80
2022/09/05 10:28:16;;;;;;;75.43;71.93;;;34.30;66.20;;;;;;5010922;28;20241;-78
2022/09/05 10:31:05;;;;;;;145.73;138.70;;;34.30;66.60;;;;;;5027121;28;20183;-78
2022/09/05 10:33:58;;;;;;;287.17;272.67;;;34.40;65.70;;;;;;5031993;28;20195;-79
2022/09/05 10:36:30;;;;;;;289.85;275.23;;;34.80;62.70;;;;;;5031996;28;20183;-80
2022/09/05 10:39:15;;;;;;;285.23;271.02;;;35.00;61.50;;;;;;5031760;28;20207;-80
2022/09/05 10:41:50;;;;;;;278.45;264.52;;;34.90;62.70;;;;;;5033039;28;20179;-79
2022/09/05 10:44:39;;;;;;;308.25;292.63;;;34.90;63.70;;;;;;5034038;28;20178;-78
2022/09/05 10:47:20;;;;;;;301.13;286.08;;;35.30;61.50;;;;;;5033548;28;20190;-78
2022/09/05 10:50:07;;;;;;;192.48;183.07;;;35.70;58.40;;;;;;5033803;28;20187;-80
2022/09/05 10:52:38;;;;;;;198.43;188.93;;;36.00;56.80;;;;;;5031897;28;20217;-80
2022/09/05 10:55:29;;;;;;;190.40;181.23;;;35.80;58.30;;;;;;5032122;28;20183;-80
2022/09/05 10:58:03;;;;;;;159.45;151.52;;;36.00;57.40;;;;;;5031122;28;20226;-79
2022/09/05 11:00:48;;;;;;;207.05;197.07;;;35.90;57.00;;;;;;5031356;28;20196;-78
2022/09/05 11:03:21;;;;;;;164.40;156.48;;;35.80;58.70;;;;;;5029916;28;20183;-78
2022/09/05 11:06:00;;;;;;;185.23;176.43;;;36.20;56.20;;;;;;5031553;28;20183;-77
2022/09/05 11:08:44;;;;;;;202.43;192.63;;;36.60;53.70;;;;;;5029358;28;20210;-78
2022/09/05 11:11:22;;;;;;;207.02;197.20;;;36.40;53.80;;;;;;5034519;28;20298;-78
2022/09/05 11:13:57;;;;;;;206.18;196.23;;;36.70;52.90;;;;;;5031953;28;20345;-80
2022/09/05 11:16:32;;;;;;;201.20;191.48;;;36.60;52.10;;;;;;5031755;28;20189;-79
2022/09/05 11:19:02;;;;;;;204.48;194.65;;;36.10;50.80;;;;;;5030125;28;20504;-80
2022/09/05 11:21:45;;;;;;;241.30;229.70;;;36.00;50.60;;;;;;5018977;28;20255;-79
2022/09/05 11:24:20;;;;;;;170.23;162.18;;;36.10;51.00;;;;;;5017740;28;20185;-80
2022/09/05 11:27:12;;;;;;;161.18;153.50;;;36.70;50.40;;;;;;5010703;28;20553;-79
2022/09/05 11:30:04;;;;;;;29.40;27.90;;;37.10;49.70;;;;;;5019646;28;20187;-77
2022/09/05 11:32:45;;;;;;;58.90;56.15;;;37.90;46.00;;;;;;5032848;28;20240;-78
2022/09/05 11:35:25;;;;;;;34.58;32.95;;;37.60;47.60;;;;;;5031301;28;20670;-79
2022/09/05 11:38:09;;;;;;;24.90;23.70;;;37.40;46.50;;;;;;5030208;28;20221;-78
2022/09/05 11:40:54;;;;;;;28.52;27.13;;;38.50;45.40;;;;;;5029312;28;20266;-80
2022/09/05 11:43:59;;;;;;;34.47;32.80;;;38.10;45.10;;;;;;5033037;28;20170;-80
2022/09/05 11:46:27;;;;;;;41.13;39.17;;;37.90;45.60;;;;;;5034332;28;20181;-80
2022/09/05 11:49:05;;;;;;;31.05;29.42;;;37.80;46.30;;;;;;5032667;28;20195;-80
2022/09/05 11:51:46;;;;;;;35.90;34.13;;;38.20;45.40;;;;;;5013447;28;20198;-80
2022/09/05 11:54:34;;;;;;;30.00;28.48;;;38.40;45.80;;;;;;5013400;28;20171;-79
2022/09/05 11:57:22;;;;;;;18.58;17.33;;;38.60;45.50;;;;;;5011146;28;20275;-80
2022/09/05 12:00:10;;;;;;;3.70;3.35;;;38.60;43.50;;;;;;5019644;28;20265;-79
2022/09/05 12:02:39;;;;;;;3.78;3.47;;;37.70;43.50;;;;;;5030502;28;20191;-79
2022/09/05 12:05:40;;;;;;;4.82;4.53;;;38.00;41.90;;;;;;5032121;28;20182;-78
2022/09/05 12:08:26;;;;;;;19.08;18.08;;;37.80;42.40;;;;;;5030785;28;20214;-80
2022/09/05 12:11:05;;;;;;;38.65;36.67;;;36.70;44.10;;;;;;5032528;28;20186;-80
2022/09/05 12:13:38;;;;;;;40.60;38.35;;;37.20;44.90;;;;;;5030365;28;20225;-79
2022/09/05 12:16:32;;;;;;;5.03;4.63;;;38.00;43.20;;;;;;5032021;28;20662;-78
2022/09/05 12:19:19;;;;;;;5.10;4.60;;;38.50;40.00;;;;;;5031511;28;20210;-81
2022/09/05 12:22:22;;;;;;;5.47;5.18;;;38.00;40.80;;;;;;5018295;28;20175;-80
2022/09/05 12:25:17;;;;;;;10.00;9.40;;;38.70;39.10;;;;;;5034861;28;20201;-81
2022/09/05 12:27:53;;;;;;;5.18;4.88;;;38.10;39.10;;;;;;5035738;28;20202;-80
2022/09/05 12:30:25;;;;;;;6.85;6.30;;;38.70;37.70;;;;;;5034225;28;20201;-79
2022/09/05 12:32:58;;;;;;;5.78;5.47;;;38.40;38.30;;;;;;5035308;28;20198;-80
2022/09/05 12:35:35;;;;;;;5.10;4.70;;;38.40;38.90;;;;;;5035844;28;20194;-80
2022/09/05 12:38:15;;;;;;;3.70;3.50;;;38.30;39.80;;;;;;5035803;28;20214;-80
2022/09/05 12:40:56;;;;;;;4.45;4.25;;;39.10;37.40;;;;;;5042819;28;20182;-79
2022/09/05 12:43:26;;;;;;;4.05;3.90;;;38.90;36.70;;;;;;5039721;28;20179;-80
2022/09/05 12:46:08;;;;;;;16.48;15.57;;;38.50;36.50;;;;;;5033790;28;20651;-79
2022/09/05 12:49:04;;;;;;;3.90;3.75;;;38.20;37.00;;;;;;5042205;28;20271;-79
2022/09/05 12:51:35;;;;;;;5.20;4.47;;;39.10;35.70;;;;;;5034252;28;20549;-79
2022/09/05 12:54:09;;;;;;;4.45;4.25;;;39.40;35.80;;;;;;5037640;28;20273;-81
2022/09/05 12:56:58;;;;;;;3.30;3.10;;;39.50;36.60;;;;;;5036331;28;20183;-80
2022/09/05 12:59:27;;;;;;;4.70;4.50;;;40.10;35.80;;;;;;5037356;28;20199;-80
2022/09/05 13:02:06;;;;;;;6.70;6.47;;;40.60;34.30;;;;;;5037377;28;20182;-81
2022/09/05 13:04:41;;;;;;;6.70;6.40;;;41.50;33.90;;;;;;5036157;28;20250;-80
2022/09/05 13:07:22;;;;;;;20.60;19.63;;;42.30;32.90;;;;;;5035896;28;20186;-78
2022/09/05 13:09:58;;;;;;;14.43;13.63;;;42.30;31.90;;;;;;5035855;28;20334;-81
2022/09/05 13:12:30;;;;;;;24.45;23.30;;;41.70;33.30;;;;;;5035685;28;20223;-79
2022/09/05 13:15:07;;;;;;;15.35;14.43;;;41.70;34.00;;;;;;5036259;28;20179;-78
2022/09/05 13:17:43;;;;;;;17.15;16.35;;;41.90;33.50;;;;;;5032991;28;20225;-78
2022/09/05 13:20:44;;;;;;;16.58;15.80;;;39.90;35.60;;;;;;5035148;28;20213;-79
2022/09/05 13:23:21;;;;;;;6.03;5.72;;;38.00;37.90;;;;;;5024446;28;20205;-78
2022/09/05 13:26:22;;;;;;;9.32;4.20;;;36.30;39.30;;;;;;5034479;28;20667;-79
2022/09/05 13:29:10;;;;;;;4.18;3.97;;;35.50;41.80;;;;;;5025969;28;20206;-82
2022/09/05 13:31:39;;;;;;;3.22;3.03;;;36.50;40.50;;;;;;5034167;28;20322;-81
2022/09/05 13:34:21;;;;;;;4.03;3.75;;;36.70;38.40;;;;;;5032042;28;20179;-81
2022/09/05 13:36:55;;;;;;;3.85;3.72;;;36.10;38.80;;;;;;5033200;28;20211;-81
2022/09/05 13:39:27;;;;;;;15.68;14.95;;;34.90;40.40;;;;;;5033472;28;20764;-80
2022/09/05 13:42:00;;;;;;;73.47;69.80;;;34.20;42.70;;;;;;5018010;28;20262;-80
2022/09/05 13:44:28;;;;;;;99.72;95.00;;;33.70;43.10;;;;;;5034697;28;20330;-81
2022/09/05 13:47:04;;;;;;;146.40;139.00;;;33.30;42.70;;;;;;5037594;28;20568;-82
2022/09/05 13:49:35;;;;;;;198.98;189.50;;;33.10;43.70;;;;;;5038659;28;20266;-80